sensor_id;sensor_type;location;lat;lon;timestamp;P1;durP1;ratioP1;P2;durP2;ratioP2
42724;SDS011;28369;44.046;23.014;2023-04-24T00:00:20;18.08;;;9.45;;
42724;SDS011;28369;44.046;23.014;2023-04-24T00:02:46;10.38;;;7.40;;
42724;SDS011;28369;44.046;23.014;2023-04-24T00:05:12;10.60;;;8.05;;
42724;SDS011;28369;44.046;23.014;2023-04-24T00:07:39;11.85;;;8.38;;
42724;SDS011;28369;44.046;23.014;2023-04-24T00:10:06;11.40;;;7.47;;
42724;SDS011;28369;44.046;23.014;2023-04-24T00:12:32;12.43;;;6.90;;
42724;SDS011;28369;44.046;23.014;2023-04-24T00:14:59;8.25;;;7.43;;
42724;SDS011;28369;44.046;23.014;2023-04-24T00:17:25;10.20;;;7.18;;
42724;SDS011;28369;44.046;23.014;2023-04-24T00:19:51;9.70;;;7.03;;
42724;SDS011;28369;44.046;23.014;2023-04-24T00:22:16;11.63;;;7.40;;
42724;SDS011;28369;44.046;23.014;2023-04-24T00:24:42;18.23;;;10.20;;
42724;SDS011;28369;44.046;23.014;2023-04-24T00:27:08;12.30;;;7.20;;
42724;SDS011;28369;44.046;23.014;2023-04-24T00:29:33;12.23;;;6.82;;
42724;SDS011;28369;44.046;23.014;2023-04-24T00:31:59;8.18;;;6.07;;
42724;SDS011;28369;44.046;23.014;2023-04-24T00:34:25;9.43;;;6.65;;
42724;SDS011;28369;44.046;23.014;2023-04-24T00:36:50;9.95;;;7.25;;
42724;SDS011;28369;44.046;23.014;2023-04-24T00:39:20;9.88;;;7.32;;
42724;SDS011;28369;44.046;23.014;2023-04-24T00:41:46;8.68;;;6.55;;
42724;SDS011;28369;44.046;23.014;2023-04-24T00:44:13;10.80;;;8.05;;
42724;SDS011;28369;44.046;23.014;2023-04-24T00:46:39;10.57;;;7.55;;
42724;SDS011;28369;44.046;23.014;2023-04-24T00:49:04;9.00;;;7.50;;
42724;SDS011;28369;44.046;23.014;2023-04-24T00:51:31;15.23;;;7.20;;
42724;SDS011;28369;44.046;23.014;2023-04-24T00:53:57;13.55;;;8.23;;
42724;SDS011;28369;44.046;23.014;2023-04-24T00:56:23;11.88;;;7.78;;
42724;SDS011;28369;44.046;23.014;2023-04-24T00:58:49;10.93;;;7.38;;
42724;SDS011;28369;44.046;23.014;2023-04-24T01:01:15;8.35;;;7.05;;
42724;SDS011;28369;44.046;23.014;2023-04-24T01:03:40;15.70;;;10.73;;
42724;SDS011;28369;44.046;23.014;2023-04-24T01:06:06;12.45;;;7.63;;
42724;SDS011;28369;44.046;23.014;2023-04-24T01:08:32;14.65;;;7.90;;
42724;SDS011;28369;44.046;23.014;2023-04-24T01:11:00;12.57;;;8.82;;
42724;SDS011;28369;44.046;23.014;2023-04-24T01:13:28;16.52;;;11.63;;
42724;SDS011;28369;44.046;23.014;2023-04-24T01:15:54;15.40;;;11.63;;
42724;SDS011;28369;44.046;23.014;2023-04-24T01:18:20;15.10;;;11.23;;
42724;SDS011;28369;44.046;23.014;2023-04-24T01:20:46;10.52;;;8.20;;
42724;SDS011;28369;44.046;23.014;2023-04-24T01:23:16;16.23;;;7.72;;
42724;SDS011;28369;44.046;23.014;2023-04-24T01:25:42;8.35;;;7.40;;
42724;SDS011;28369;44.046;23.014;2023-04-24T01:28:08;32.75;;;15.93;;
42724;SDS011;28369;44.046;23.014;2023-04-24T01:30:33;27.52;;;13.98;;
42724;SDS011;28369;44.046;23.014;2023-04-24T01:32:59;29.92;;;15.35;;
42724;SDS011;28369;44.046;23.014;2023-04-24T01:35:24;15.52;;;8.70;;
42724;SDS011;28369;44.046;23.014;2023-04-24T01:37:50;10.20;;;8.45;;
42724;SDS011;28369;44.046;23.014;2023-04-24T01:40:16;10.75;;;9.23;;
42724;SDS011;28369;44.046;23.014;2023-04-24T01:42:41;25.08;;;16.77;;
42724;SDS011;28369;44.046;23.014;2023-04-24T01:45:07;12.25;;;10.60;;
42724;SDS011;28369;44.046;23.014;2023-04-24T01:47:36;11.95;;;10.05;;
42724;SDS011;28369;44.046;23.014;2023-04-24T01:50:01;11.20;;;10.05;;
42724;SDS011;28369;44.046;23.014;2023-04-24T01:52:28;13.75;;;10.38;;
42724;SDS011;28369;44.046;23.014;2023-04-24T01:54:56;19.65;;;10.70;;
42724;SDS011;28369;44.046;23.014;2023-04-24T01:57:24;14.07;;;10.13;;
42724;SDS011;28369;44.046;23.014;2023-04-24T01:59:50;10.57;;;9.48;;
42724;SDS011;28369;44.046;23.014;2023-04-24T02:02:16;12.27;;;10.05;;
42724;SDS011;28369;44.046;23.014;2023-04-24T02:04:42;10.63;;;9.52;;
42724;SDS011;28369;44.046;23.014;2023-04-24T02:07:07;14.02;;;11.05;;
42724;SDS011;28369;44.046;23.014;2023-04-24T02:09:33;13.43;;;11.50;;
42724;SDS011;28369;44.046;23.014;2023-04-24T02:11:59;12.00;;;10.82;;
42724;SDS011;28369;44.046;23.014;2023-04-24T02:14:25;12.75;;;10.48;;
42724;SDS011;28369;44.046;23.014;2023-04-24T02:16:51;11.73;;;9.82;;
42724;SDS011;28369;44.046;23.014;2023-04-24T02:19:16;10.77;;;9.65;;
42724;SDS011;28369;44.046;23.014;2023-04-24T02:21:42;13.80;;;9.98;;
42724;SDS011;28369;44.046;23.014;2023-04-24T02:24:07;14.27;;;10.00;;
42724;SDS011;28369;44.046;23.014;2023-04-24T02:26:33;14.00;;;10.73;;
42724;SDS011;28369;44.046;23.014;2023-04-24T02:28:59;11.55;;;9.15;;
42724;SDS011;28369;44.046;23.014;2023-04-24T02:31:24;21.13;;;10.55;;
42724;SDS011;28369;44.046;23.014;2023-04-24T02:33:50;14.48;;;10.93;;
42724;SDS011;28369;44.046;23.014;2023-04-24T02:36:16;15.82;;;11.20;;
42724;SDS011;28369;44.046;23.014;2023-04-24T02:38:41;12.45;;;11.15;;
42724;SDS011;28369;44.046;23.014;2023-04-24T02:41:07;11.68;;;10.48;;
42724;SDS011;28369;44.046;23.014;2023-04-24T02:43:32;11.63;;;10.45;;
42724;SDS011;28369;44.046;23.014;2023-04-24T02:45:59;13.25;;;10.43;;
42724;SDS011;28369;44.046;23.014;2023-04-24T02:48:25;21.35;;;10.77;;
42724;SDS011;28369;44.046;23.014;2023-04-24T02:50:50;12.40;;;10.70;;
42724;SDS011;28369;44.046;23.014;2023-04-24T02:53:16;10.80;;;9.75;;
42724;SDS011;28369;44.046;23.014;2023-04-24T02:55:42;12.60;;;9.20;;
42724;SDS011;28369;44.046;23.014;2023-04-24T02:58:07;14.80;;;9.57;;
42724;SDS011;28369;44.046;23.014;2023-04-24T03:00:33;10.68;;;9.57;;
42724;SDS011;28369;44.046;23.014;2023-04-24T03:02:59;12.30;;;10.20;;
42724;SDS011;28369;44.046;23.014;2023-04-24T03:05:24;12.13;;;10.43;;
42724;SDS011;28369;44.046;23.014;2023-04-24T03:07:50;13.82;;;10.35;;
42724;SDS011;28369;44.046;23.014;2023-04-24T03:10:17;14.38;;;10.18;;
42724;SDS011;28369;44.046;23.014;2023-04-24T03:12:43;12.45;;;11.07;;
42724;SDS011;28369;44.046;23.014;2023-04-24T03:15:08;12.82;;;11.30;;
42724;SDS011;28369;44.046;23.014;2023-04-24T03:17:34;15.02;;;11.80;;
42724;SDS011;28369;44.046;23.014;2023-04-24T03:20:00;16.42;;;11.88;;
42724;SDS011;28369;44.046;23.014;2023-04-24T03:22:26;15.60;;;10.50;;
42724;SDS011;28369;44.046;23.014;2023-04-24T03:24:51;12.15;;;10.50;;
42724;SDS011;28369;44.046;23.014;2023-04-24T03:27:17;11.30;;;9.70;;
42724;SDS011;28369;44.046;23.014;2023-04-24T03:29:42;11.73;;;10.60;;
42724;SDS011;28369;44.046;23.014;2023-04-24T03:32:08;11.57;;;10.20;;
42724;SDS011;28369;44.046;23.014;2023-04-24T03:34:33;16.10;;;12.73;;
42724;SDS011;28369;44.046;23.014;2023-04-24T03:37:00;16.88;;;12.30;;
42724;SDS011;28369;44.046;23.014;2023-04-24T03:39:25;16.00;;;12.90;;
42724;SDS011;28369;44.046;23.014;2023-04-24T03:41:50;19.50;;;12.45;;
42724;SDS011;28369;44.046;23.014;2023-04-24T03:44:16;15.43;;;12.25;;
42724;SDS011;28369;44.046;23.014;2023-04-24T03:46:42;21.15;;;14.07;;
42724;SDS011;28369;44.046;23.014;2023-04-24T03:49:07;17.95;;;15.40;;
42724;SDS011;28369;44.046;23.014;2023-04-24T03:51:32;16.15;;;14.55;;
42724;SDS011;28369;44.046;23.014;2023-04-24T03:53:58;20.30;;;15.02;;
42724;SDS011;28369;44.046;23.014;2023-04-24T03:56:23;14.93;;;13.07;;
42724;SDS011;28369;44.046;23.014;2023-04-24T03:58:49;17.80;;;12.18;;
42724;SDS011;28369;44.046;23.014;2023-04-24T04:01:14;13.52;;;12.02;;
42724;SDS011;28369;44.046;23.014;2023-04-24T04:03:41;13.45;;;11.75;;
42724;SDS011;28369;44.046;23.014;2023-04-24T04:06:06;16.25;;;10.88;;
42724;SDS011;28369;44.046;23.014;2023-04-24T04:08:32;17.15;;;12.23;;
42724;SDS011;28369;44.046;23.014;2023-04-24T04:10:57;12.15;;;10.35;;
42724;SDS011;28369;44.046;23.014;2023-04-24T04:13:23;15.68;;;11.80;;
42724;SDS011;28369;44.046;23.014;2023-04-24T04:15:48;14.15;;;10.95;;
42724;SDS011;28369;44.046;23.014;2023-04-24T04:18:14;12.25;;;10.27;;
42724;SDS011;28369;44.046;23.014;2023-04-24T04:20:40;14.68;;;10.50;;
42724;SDS011;28369;44.046;23.014;2023-04-24T04:23:05;11.25;;;10.15;;
42724;SDS011;28369;44.046;23.014;2023-04-24T04:25:31;12.00;;;9.43;;
42724;SDS011;28369;44.046;23.014;2023-04-24T04:27:56;11.13;;;9.27;;
42724;SDS011;28369;44.046;23.014;2023-04-24T04:30:23;13.07;;;8.00;;
42724;SDS011;28369;44.046;23.014;2023-04-24T04:32:48;12.75;;;8.85;;
42724;SDS011;28369;44.046;23.014;2023-04-24T04:35:14;9.77;;;8.85;;
42724;SDS011;28369;44.046;23.014;2023-04-24T04:37:39;9.18;;;8.23;;
42724;SDS011;28369;44.046;23.014;2023-04-24T04:40:05;9.68;;;8.77;;
42724;SDS011;28369;44.046;23.014;2023-04-24T04:42:32;9.27;;;8.10;;
42724;SDS011;28369;44.046;23.014;2023-04-24T04:45:01;11.75;;;8.35;;
42724;SDS011;28369;44.046;23.014;2023-04-24T04:47:27;8.27;;;7.47;;
42724;SDS011;28369;44.046;23.014;2023-04-24T04:49:53;9.52;;;8.05;;
42724;SDS011;28369;44.046;23.014;2023-04-24T04:52:19;10.82;;;9.32;;
42724;SDS011;28369;44.046;23.014;2023-04-24T04:54:45;15.13;;;11.15;;
42724;SDS011;28369;44.046;23.014;2023-04-24T04:57:11;10.20;;;9.00;;
42724;SDS011;28369;44.046;23.014;2023-04-24T04:59:37;12.02;;;9.18;;
42724;SDS011;28369;44.046;23.014;2023-04-24T05:02:03;12.65;;;11.30;;
42724;SDS011;28369;44.046;23.014;2023-04-24T05:04:28;12.93;;;8.85;;
42724;SDS011;28369;44.046;23.014;2023-04-24T05:06:55;11.18;;;8.73;;
42724;SDS011;28369;44.046;23.014;2023-04-24T05:09:21;10.80;;;9.32;;
42724;SDS011;28369;44.046;23.014;2023-04-24T05:11:46;10.82;;;9.73;;
42724;SDS011;28369;44.046;23.014;2023-04-24T05:14:12;12.07;;;9.38;;
42724;SDS011;28369;44.046;23.014;2023-04-24T05:16:37;11.20;;;10.00;;
42724;SDS011;28369;44.046;23.014;2023-04-24T05:19:04;14.40;;;10.25;;
42724;SDS011;28369;44.046;23.014;2023-04-24T05:21:30;10.93;;;9.27;;
42724;SDS011;28369;44.046;23.014;2023-04-24T05:23:56;14.38;;;10.60;;
42724;SDS011;28369;44.046;23.014;2023-04-24T05:26:21;9.80;;;8.50;;
42724;SDS011;28369;44.046;23.014;2023-04-24T05:28:47;12.30;;;10.07;;
42724;SDS011;28369;44.046;23.014;2023-04-24T05:31:13;10.18;;;9.07;;
42724;SDS011;28369;44.046;23.014;2023-04-24T05:33:38;12.60;;;9.27;;
42724;SDS011;28369;44.046;23.014;2023-04-24T05:36:04;11.73;;;8.52;;
42724;SDS011;28369;44.046;23.014;2023-04-24T05:38:31;12.23;;;8.90;;
42724;SDS011;28369;44.046;23.014;2023-04-24T05:40:56;10.80;;;9.43;;
42724;SDS011;28369;44.046;23.014;2023-04-24T05:43:22;11.20;;;9.13;;
42724;SDS011;28369;44.046;23.014;2023-04-24T05:45:47;11.68;;;9.30;;
42724;SDS011;28369;44.046;23.014;2023-04-24T05:48:13;10.57;;;9.50;;
42724;SDS011;28369;44.046;23.014;2023-04-24T05:50:38;12.68;;;8.68;;
42724;SDS011;28369;44.046;23.014;2023-04-24T05:53:04;9.80;;;7.90;;
42724;SDS011;28369;44.046;23.014;2023-04-24T05:55:32;8.77;;;7.88;;
42724;SDS011;28369;44.046;23.014;2023-04-24T05:57:57;14.23;;;8.27;;
42724;SDS011;28369;44.046;23.014;2023-04-24T06:00:23;8.27;;;7.50;;
42724;SDS011;28369;44.046;23.014;2023-04-24T06:02:49;12.98;;;6.65;;
42724;SDS011;28369;44.046;23.014;2023-04-24T06:05:15;10.55;;;7.35;;
42724;SDS011;28369;44.046;23.014;2023-04-24T06:07:40;9.65;;;8.43;;
42724;SDS011;28369;44.046;23.014;2023-04-24T06:10:06;11.38;;;8.70;;
42724;SDS011;28369;44.046;23.014;2023-04-24T06:12:32;10.15;;;7.60;;
42724;SDS011;28369;44.046;23.014;2023-04-24T06:14:58;8.32;;;7.50;;
42724;SDS011;28369;44.046;23.014;2023-04-24T06:17:23;10.45;;;7.13;;
42724;SDS011;28369;44.046;23.014;2023-04-24T06:19:49;7.82;;;7.03;;
42724;SDS011;28369;44.046;23.014;2023-04-24T06:22:14;7.80;;;6.05;;
42724;SDS011;28369;44.046;23.014;2023-04-24T06:24:40;8.95;;;5.97;;
42724;SDS011;28369;44.046;23.014;2023-04-24T06:27:06;8.40;;;5.63;;
42724;SDS011;28369;44.046;23.014;2023-04-24T06:29:33;7.80;;;6.22;;
42724;SDS011;28369;44.046;23.014;2023-04-24T06:31:59;9.25;;;5.65;;
42724;SDS011;28369;44.046;23.014;2023-04-24T06:34:25;6.50;;;5.65;;
42724;SDS011;28369;44.046;23.014;2023-04-24T06:36:50;8.50;;;5.80;;
42724;SDS011;28369;44.046;23.014;2023-04-24T06:39:16;7.53;;;5.70;;
42724;SDS011;28369;44.046;23.014;2023-04-24T06:41:42;11.55;;;6.03;;
42724;SDS011;28369;44.046;23.014;2023-04-24T06:44:07;7.00;;;5.63;;
42724;SDS011;28369;44.046;23.014;2023-04-24T06:46:33;6.15;;;5.47;;
42724;SDS011;28369;44.046;23.014;2023-04-24T06:49:01;6.97;;;5.50;;
42724;SDS011;28369;44.046;23.014;2023-04-24T06:51:27;7.95;;;5.80;;
42724;SDS011;28369;44.046;23.014;2023-04-24T06:53:53;6.70;;;5.97;;
42724;SDS011;28369;44.046;23.014;2023-04-24T06:56:19;8.73;;;6.38;;
42724;SDS011;28369;44.046;23.014;2023-04-24T06:58:45;9.85;;;6.13;;
42724;SDS011;28369;44.046;23.014;2023-04-24T07:01:11;9.45;;;5.78;;
42724;SDS011;28369;44.046;23.014;2023-04-24T07:03:38;10.70;;;5.82;;
42724;SDS011;28369;44.046;23.014;2023-04-24T07:06:04;6.25;;;5.35;;
42724;SDS011;28369;44.046;23.014;2023-04-24T07:08:30;9.02;;;5.72;;
42724;SDS011;28369;44.046;23.014;2023-04-24T07:10:55;8.35;;;6.20;;
42724;SDS011;28369;44.046;23.014;2023-04-24T07:13:22;6.38;;;5.75;;
42724;SDS011;28369;44.046;23.014;2023-04-24T07:15:48;7.65;;;6.07;;
42724;SDS011;28369;44.046;23.014;2023-04-24T07:18:15;8.98;;;6.22;;
42724;SDS011;28369;44.046;23.014;2023-04-24T07:20:41;9.32;;;5.90;;
42724;SDS011;28369;44.046;23.014;2023-04-24T07:23:07;8.90;;;5.82;;
42724;SDS011;28369;44.046;23.014;2023-04-24T07:25:33;11.18;;;6.38;;
42724;SDS011;28369;44.046;23.014;2023-04-24T07:27:58;9.55;;;6.47;;
42724;SDS011;28369;44.046;23.014;2023-04-24T07:30:24;8.85;;;5.55;;
42724;SDS011;28369;44.046;23.014;2023-04-24T07:32:50;10.57;;;6.18;;
42724;SDS011;28369;44.046;23.014;2023-04-24T07:35:15;7.60;;;5.45;;
42724;SDS011;28369;44.046;23.014;2023-04-24T07:37:41;7.38;;;6.65;;
42724;SDS011;28369;44.046;23.014;2023-04-24T07:40:11;8.05;;;5.80;;
42724;SDS011;28369;44.046;23.014;2023-04-24T07:42:39;8.27;;;6.00;;
42724;SDS011;28369;44.046;23.014;2023-04-24T07:45:04;7.00;;;6.13;;
42724;SDS011;28369;44.046;23.014;2023-04-24T07:47:31;7.13;;;5.40;;
42724;SDS011;28369;44.046;23.014;2023-04-24T07:49:57;7.82;;;5.93;;
42724;SDS011;28369;44.046;23.014;2023-04-24T07:52:23;6.70;;;5.28;;
42724;SDS011;28369;44.046;23.014;2023-04-24T07:54:49;7.85;;;6.03;;
42724;SDS011;28369;44.046;23.014;2023-04-24T07:57:15;9.55;;;5.90;;
42724;SDS011;28369;44.046;23.014;2023-04-24T07:59:41;5.75;;;5.20;;
42724;SDS011;28369;44.046;23.014;2023-04-24T08:02:07;7.00;;;5.60;;
42724;SDS011;28369;44.046;23.014;2023-04-24T08:04:32;7.95;;;6.10;;
42724;SDS011;28369;44.046;23.014;2023-04-24T08:06:58;10.90;;;5.97;;
42724;SDS011;28369;44.046;23.014;2023-04-24T08:09:24;6.75;;;5.47;;
42724;SDS011;28369;44.046;23.014;2023-04-24T08:11:49;5.93;;;5.13;;
42724;SDS011;28369;44.046;23.014;2023-04-24T08:14:15;7.90;;;6.03;;
42724;SDS011;28369;44.046;23.014;2023-04-24T08:16:40;6.55;;;5.85;;
42724;SDS011;28369;44.046;23.014;2023-04-24T08:19:06;8.45;;;6.00;;
42724;SDS011;28369;44.046;23.014;2023-04-24T08:21:32;7.40;;;6.05;;
42724;SDS011;28369;44.046;23.014;2023-04-24T08:23:57;7.60;;;6.18;;
42724;SDS011;28369;44.046;23.014;2023-04-24T08:26:23;6.97;;;6.28;;
42724;SDS011;28369;44.046;23.014;2023-04-24T08:28:48;7.03;;;6.22;;
42724;SDS011;28369;44.046;23.014;2023-04-24T08:31:14;6.90;;;6.20;;
42724;SDS011;28369;44.046;23.014;2023-04-24T08:33:40;7.70;;;6.35;;
42724;SDS011;28369;44.046;23.014;2023-04-24T08:36:06;8.02;;;5.90;;
42724;SDS011;28369;44.046;23.014;2023-04-24T08:38:32;7.65;;;5.68;;
42724;SDS011;28369;44.046;23.014;2023-04-24T08:40:59;7.57;;;6.35;;
42724;SDS011;28369;44.046;23.014;2023-04-24T08:43:26;6.68;;;5.97;;
42724;SDS011;28369;44.046;23.014;2023-04-24T08:45:52;11.00;;;6.53;;
42724;SDS011;28369;44.046;23.014;2023-04-24T08:48:22;12.50;;;6.22;;
42724;SDS011;28369;44.046;23.014;2023-04-24T08:50:48;15.43;;;6.50;;
42724;SDS011;28369;44.046;23.014;2023-04-24T08:53:17;10.32;;;6.10;;
42724;SDS011;28369;44.046;23.014;2023-04-24T08:55:43;9.88;;;6.68;;
42724;SDS011;28369;44.046;23.014;2023-04-24T08:58:12;6.45;;;5.85;;
42724;SDS011;28369;44.046;23.014;2023-04-24T09:00:39;8.25;;;6.95;;
42724;SDS011;28369;44.046;23.014;2023-04-24T09:03:05;7.80;;;6.50;;
42724;SDS011;28369;44.046;23.014;2023-04-24T09:05:31;7.40;;;6.10;;
42724;SDS011;28369;44.046;23.014;2023-04-24T09:07:57;6.75;;;6.13;;
42724;SDS011;28369;44.046;23.014;2023-04-24T09:10:25;8.48;;;6.32;;
42724;SDS011;28369;44.046;23.014;2023-04-24T09:12:51;9.68;;;6.80;;
42724;SDS011;28369;44.046;23.014;2023-04-24T09:15:18;6.72;;;6.07;;
42724;SDS011;28369;44.046;23.014;2023-04-24T09:17:45;6.38;;;5.78;;
42724;SDS011;28369;44.046;23.014;2023-04-24T09:20:11;9.05;;;6.55;;
42724;SDS011;28369;44.046;23.014;2023-04-24T09:22:37;10.30;;;6.20;;
42724;SDS011;28369;44.046;23.014;2023-04-24T09:28:15;8.35;;;6.57;;
42724;SDS011;28369;44.046;23.014;2023-04-24T09:30:41;6.90;;;6.20;;
42724;SDS011;28369;44.046;23.014;2023-04-24T09:33:13;7.43;;;6.72;;
42724;SDS011;28369;44.046;23.014;2023-04-24T09:35:50;7.40;;;6.70;;
42724;SDS011;28369;44.046;23.014;2023-04-24T09:38:16;9.90;;;7.15;;
42724;SDS011;28369;44.046;23.014;2023-04-24T09:40:42;12.07;;;7.45;;
42724;SDS011;28369;44.046;23.014;2023-04-24T09:43:11;9.05;;;7.82;;
42724;SDS011;28369;44.046;23.014;2023-04-24T09:45:37;9.23;;;8.32;;
42724;SDS011;28369;44.046;23.014;2023-04-24T09:48:05;11.32;;;8.30;;
42724;SDS011;28369;44.046;23.014;2023-04-24T09:50:33;9.90;;;8.02;;
42724;SDS011;28369;44.046;23.014;2023-04-24T09:53:03;11.13;;;8.88;;
42724;SDS011;28369;44.046;23.014;2023-04-24T09:55:29;9.82;;;7.53;;
42724;SDS011;28369;44.046;23.014;2023-04-24T09:57:59;11.45;;;8.23;;
42724;SDS011;28369;44.046;23.014;2023-04-24T10:00:29;8.48;;;7.65;;
42724;SDS011;28369;44.046;23.014;2023-04-24T10:05:23;12.43;;;8.13;;
42724;SDS011;28369;44.046;23.014;2023-04-24T10:07:50;9.35;;;7.88;;
42724;SDS011;28369;44.046;23.014;2023-04-24T10:10:19;8.23;;;7.35;;
42724;SDS011;28369;44.046;23.014;2023-04-24T10:16:02;9.68;;;8.25;;
42724;SDS011;28369;44.046;23.014;2023-04-24T10:18:38;9.63;;;7.80;;
42724;SDS011;28369;44.046;23.014;2023-04-24T10:21:20;9.70;;;8.02;;
42724;SDS011;28369;44.046;23.014;2023-04-24T10:23:46;9.48;;;8.48;;
42724;SDS011;28369;44.046;23.014;2023-04-24T10:26:14;9.35;;;8.45;;
42724;SDS011;28369;44.046;23.014;2023-04-24T10:28:48;10.88;;;9.02;;
42724;SDS011;28369;44.046;23.014;2023-04-24T10:31:14;11.68;;;10.13;;
42724;SDS011;28369;44.046;23.014;2023-04-24T10:33:43;9.75;;;8.77;;
42724;SDS011;28369;44.046;23.014;2023-04-24T10:36:20;11.85;;;9.35;;
42724;SDS011;28369;44.046;23.014;2023-04-24T10:38:48;12.23;;;10.20;;
42724;SDS011;28369;44.046;23.014;2023-04-24T10:41:15;12.93;;;11.48;;
42724;SDS011;28369;44.046;23.014;2023-04-24T10:43:48;14.45;;;10.68;;
42724;SDS011;28369;44.046;23.014;2023-04-24T10:49:07;9.52;;;7.35;;
42724;SDS011;28369;44.046;23.014;2023-04-24T10:59:45;8.02;;;6.30;;
42724;SDS011;28369;44.046;23.014;2023-04-24T11:02:13;7.40;;;6.60;;
42724;SDS011;28369;44.046;23.014;2023-04-24T11:04:40;8.00;;;6.85;;
42724;SDS011;28369;44.046;23.014;2023-04-24T11:07:06;9.85;;;6.90;;
42724;SDS011;28369;44.046;23.014;2023-04-24T11:09:31;14.55;;;10.57;;
42724;SDS011;28369;44.046;23.014;2023-04-24T11:12:07;14.80;;;10.10;;
42724;SDS011;28369;44.046;23.014;2023-04-24T11:20:09;15.43;;;9.30;;
42724;SDS011;28369;44.046;23.014;2023-04-24T11:22:37;12.35;;;8.15;;
42724;SDS011;28369;44.046;23.014;2023-04-24T11:25:05;8.18;;;7.15;;
42724;SDS011;28369;44.046;23.014;2023-04-24T11:27:37;9.73;;;8.07;;
42724;SDS011;28369;44.046;23.014;2023-04-24T11:30:04;10.13;;;7.85;;
42724;SDS011;28369;44.046;23.014;2023-04-24T11:35:01;9.50;;;8.15;;
42724;SDS011;28369;44.046;23.014;2023-04-24T11:37:29;9.05;;;8.05;;
42724;SDS011;28369;44.046;23.014;2023-04-24T11:40:02;12.35;;;8.90;;
42724;SDS011;28369;44.046;23.014;2023-04-24T11:42:39;10.20;;;6.97;;
42724;SDS011;28369;44.046;23.014;2023-04-24T11:45:13;12.10;;;7.32;;
42724;SDS011;28369;44.046;23.014;2023-04-24T11:47:59;8.85;;;7.28;;
42724;SDS011;28369;44.046;23.014;2023-04-24T11:50:26;9.23;;;6.57;;
42724;SDS011;28369;44.046;23.014;2023-04-24T11:52:53;7.90;;;6.80;;
42724;SDS011;28369;44.046;23.014;2023-04-24T11:57:45;8.10;;;5.53;;
42724;SDS011;28369;44.046;23.014;2023-04-24T12:00:16;9.02;;;6.10;;
42724;SDS011;28369;44.046;23.014;2023-04-24T12:02:48;7.72;;;5.57;;
42724;SDS011;28369;44.046;23.014;2023-04-24T12:05:21;5.90;;;5.30;;
42724;SDS011;28369;44.046;23.014;2023-04-24T12:07:48;8.68;;;4.88;;
42724;SDS011;28369;44.046;23.014;2023-04-24T12:10:14;5.85;;;5.20;;
42724;SDS011;28369;44.046;23.014;2023-04-24T12:12:48;6.85;;;4.90;;
42724;SDS011;28369;44.046;23.014;2023-04-24T12:15:16;5.72;;;4.50;;
42724;SDS011;28369;44.046;23.014;2023-04-24T12:17:43;7.00;;;4.30;;
42724;SDS011;28369;44.046;23.014;2023-04-24T12:20:10;4.45;;;3.83;;
42724;SDS011;28369;44.046;23.014;2023-04-24T12:22:52;5.00;;;4.05;;
42724;SDS011;28369;44.046;23.014;2023-04-24T12:25:20;6.80;;;4.28;;
42724;SDS011;28369;44.046;23.014;2023-04-24T12:27:51;9.05;;;3.65;;
42724;SDS011;28369;44.046;23.014;2023-04-24T12:30:20;4.05;;;3.60;;
42724;SDS011;28369;44.046;23.014;2023-04-24T12:32:47;6.32;;;4.00;;
42724;SDS011;28369;44.046;23.014;2023-04-24T12:35:18;3.60;;;3.30;;
42724;SDS011;28369;44.046;23.014;2023-04-24T12:37:45;5.55;;;3.42;;
42724;SDS011;28369;44.046;23.014;2023-04-24T12:40:11;7.30;;;4.00;;
42724;SDS011;28369;44.046;23.014;2023-04-24T12:42:44;7.55;;;3.45;;
42724;SDS011;28369;44.046;23.014;2023-04-24T12:45:11;4.75;;;3.42;;
42724;SDS011;28369;44.046;23.014;2023-04-24T12:47:37;8.02;;;3.60;;
42724;SDS011;28369;44.046;23.014;2023-04-24T12:50:04;5.35;;;3.20;;
42724;SDS011;28369;44.046;23.014;2023-04-24T12:52:31;8.27;;;3.45;;
42724;SDS011;28369;44.046;23.014;2023-04-24T12:54:57;5.57;;;3.17;;
42724;SDS011;28369;44.046;23.014;2023-04-24T12:57:25;3.72;;;3.13;;
42724;SDS011;28369;44.046;23.014;2023-04-24T12:59:55;4.78;;;3.25;;
42724;SDS011;28369;44.046;23.014;2023-04-24T13:02:24;5.70;;;3.95;;
42724;SDS011;28369;44.046;23.014;2023-04-24T13:04:52;4.55;;;3.25;;
42724;SDS011;28369;44.046;23.014;2023-04-24T13:07:19;3.50;;;2.65;;
42724;SDS011;28369;44.046;23.014;2023-04-24T13:09:45;2.90;;;2.25;;
42724;SDS011;28369;44.046;23.014;2023-04-24T13:12:11;2.35;;;1.90;;
42724;SDS011;28369;44.046;23.014;2023-04-24T13:14:37;3.70;;;2.20;;
42724;SDS011;28369;44.046;23.014;2023-04-24T13:17:03;3.55;;;2.13;;
42724;SDS011;28369;44.046;23.014;2023-04-24T13:19:29;4.00;;;2.20;;
42724;SDS011;28369;44.046;23.014;2023-04-24T13:22:01;3.10;;;2.22;;
42724;SDS011;28369;44.046;23.014;2023-04-24T13:24:26;2.20;;;1.95;;
42724;SDS011;28369;44.046;23.014;2023-04-24T13:26:52;3.90;;;2.47;;
42724;SDS011;28369;44.046;23.014;2023-04-24T13:29:18;2.33;;;2.13;;
42724;SDS011;28369;44.046;23.014;2023-04-24T13:31:44;2.13;;;1.85;;
42724;SDS011;28369;44.046;23.014;2023-04-24T13:34:10;3.88;;;2.10;;
42724;SDS011;28369;44.046;23.014;2023-04-24T13:36:36;2.40;;;2.20;;
42724;SDS011;28369;44.046;23.014;2023-04-24T13:39:02;2.97;;;2.00;;
42724;SDS011;28369;44.046;23.014;2023-04-24T13:41:29;3.13;;;2.10;;
42724;SDS011;28369;44.046;23.014;2023-04-24T13:43:55;2.50;;;2.13;;
42724;SDS011;28369;44.046;23.014;2023-04-24T13:46:21;4.22;;;2.10;;
42724;SDS011;28369;44.046;23.014;2023-04-24T13:48:46;2.90;;;2.20;;
42724;SDS011;28369;44.046;23.014;2023-04-24T13:51:12;3.80;;;2.42;;
42724;SDS011;28369;44.046;23.014;2023-04-24T13:53:37;3.47;;;2.10;;
42724;SDS011;28369;44.046;23.014;2023-04-24T13:56:04;3.75;;;2.35;;
42724;SDS011;28369;44.046;23.014;2023-04-24T13:58:30;2.50;;;1.95;;
42724;SDS011;28369;44.046;23.014;2023-04-24T14:00:57;2.67;;;1.92;;
42724;SDS011;28369;44.046;23.014;2023-04-24T14:03:22;4.45;;;2.25;;
42724;SDS011;28369;44.046;23.014;2023-04-24T14:05:48;4.07;;;1.95;;
42724;SDS011;28369;44.046;23.014;2023-04-24T14:08:13;4.32;;;2.58;;
42724;SDS011;28369;44.046;23.014;2023-04-24T14:10:39;3.03;;;2.30;;
42724;SDS011;28369;44.046;23.014;2023-04-24T14:13:04;4.07;;;2.55;;
42724;SDS011;28369;44.046;23.014;2023-04-24T14:15:30;4.78;;;2.42;;
42724;SDS011;28369;44.046;23.014;2023-04-24T14:17:56;5.65;;;3.55;;
42724;SDS011;28369;44.046;23.014;2023-04-24T14:20:22;5.13;;;2.53;;
42724;SDS011;28369;44.046;23.014;2023-04-24T14:22:48;3.75;;;2.38;;
42724;SDS011;28369;44.046;23.014;2023-04-24T14:25:13;3.78;;;2.25;;
42724;SDS011;28369;44.046;23.014;2023-04-24T14:27:40;5.53;;;2.50;;
42724;SDS011;28369;44.046;23.014;2023-04-24T14:30:06;3.33;;;2.63;;
42724;SDS011;28369;44.046;23.014;2023-04-24T14:32:32;10.20;;;2.88;;
42724;SDS011;28369;44.046;23.014;2023-04-24T14:34:58;4.60;;;2.72;;
42724;SDS011;28369;44.046;23.014;2023-04-24T14:37:23;3.53;;;2.50;;
42724;SDS011;28369;44.046;23.014;2023-04-24T14:39:49;3.55;;;2.83;;
42724;SDS011;28369;44.046;23.014;2023-04-24T14:42:14;4.47;;;3.08;;
42724;SDS011;28369;44.046;23.014;2023-04-24T14:44:41;4.30;;;2.63;;
42724;SDS011;28369;44.046;23.014;2023-04-24T14:47:07;2.95;;;2.63;;
42724;SDS011;28369;44.046;23.014;2023-04-24T14:49:32;8.05;;;3.47;;
42724;SDS011;28369;44.046;23.014;2023-04-24T14:51:58;8.00;;;3.20;;